• Join FlightAware (Why Join?)
  • Login
  • US Flag 
12:37PM EDT


 

Airport Tracker/Info


-or-


 

Live Flight TrackerFlight Track Log ✈ DAL2033 ✈ 11-Jul-2013 ✈ KALB - KATL

Flight Track Log - Related Links

Times and Time Zones

All times are in EDT time to prevent confusion due to time zone crossing. See the DAL2033 flight status page for this flight to view local times or setup timezone preferences in your user account.

Time Position Orientation Groundspeed Altitude Reporting Facility
EDT Latitude Longitude Course Direction KTS MPH feet Rate Location/Type
06:14PM 42.7694 -73.8089 223° Southwest 165 190 1,300  Level Boston Center
06:15PM 42.8067 -73.8269 340° North 205 236 2,300 1,860 Climbing Boston Center
06:17PM 42.7333 -74.2284 270° West  Level FlightAware Approximate
06:17PM 42.7900 -73.9819 262° West 260 299 6,000  Level Boston Center
06:18PM 42.6992 -74.3531 220° Southwest  Level FlightAware Approximate
06:18PM 42.7742 -74.0864 258° West 272 313 9,300  Level Boston Center
06:19PM 42.6184 -74.4440 220° Southwest  Level FlightAware Approximate
06:19PM 42.7597 -74.2131 261° West 295 339 10,800  Level Boston Center
06:20PM 42.5396 -74.5380 223° Southwest  Level FlightAware Approximate
06:20PM 42.7347 -74.3339 254° West 346 398 12,300  Level Boston Center
06:21PM 42.6925 -74.4853 249° West 386 444 14,900 2,400 Climbing Boston Center
06:22PM 42.6692 -74.6172 257° West 398 458 17,100 2,220 Climbing Boston Center
06:23PM 42.6408 -74.7856 257° West 411 473 19,400 2,100 Climbing Boston Center
06:24PM 42.5942 -74.9278 246° West 411 473 21,300 1,800 Climbing Boston Center
06:25PM 42.5267 -75.0575 235° Southwest 416 479 23,100 2,040 Climbing Boston Center
06:26PM 42.4589 -75.1842 234° Southwest 421 484 25,400 1,920 Climbing Boston Center
06:27PM 42.3933 -75.3050 234° Southwest 421 484 27,000 1,080 Climbing Boston Center
06:28PM 42.3275 -75.4311 235° Southwest 415 478 27,600 1,320 Climbing Boston Center
06:29PM 42.2194 -75.6317 234° Southwest 380 437 30,700 1,500 Climbing New York Center
06:30PM 42.1583 -75.7475 235° Southwest 380 437 31,800 600 Climbing New York Center
06:31PM 42.0997 -75.8578 234° Southwest 375 432 32,000 180 Climbing New York Center
06:32PM 42.0383 -75.9731 234° Southwest 375 432 32,200 600 Climbing New York Center
06:33PM 41.9794 -76.0828 234° Southwest 375 432 33,200 840 Climbing New York Center
06:34PM 41.9181 -76.1950 234° Southwest 375 432 33,900 360 Climbing New York Center
06:35PM 41.8608 -76.3072 236° Southwest 370 426 34,000  Climbing New York Center
06:36PM 41.7997 -76.4136 232° Southwest 370 426 34,000  Level New York Center
06:37PM 41.7425 -76.5225 235° Southwest 370 426 34,000  Level New York Center
06:38PM 41.6878 -76.6206 233° Southwest 370 426 34,000  Level New York Center
06:39PM 41.6236 -76.7372 234° Southwest 365 420 34,000  Level New York Center
06:40PM 41.5617 -76.8481 233° Southwest 365 420 34,000  Level New York Center
06:41PM 41.5089 -76.9403 233° Southwest 370 426 34,000  Level New York Center
06:42PM 41.4489 -77.0539 235° Southwest 370 426 34,000  Level New York Center
06:43PM 41.3892 -77.1589 233° Southwest 370 426 34,000  Level New York Center
06:44PM 41.3269 -77.2664 232° Southwest 370 426 34,000  Level New York Center
06:45PM 41.2667 -77.3767 234° Southwest 365 420 34,000  Level New York Center
06:47PM 41.1575 -77.5714 233° Southwest 374 430 34,000  Level Cleveland Center
06:48PM 41.0956 -77.6789 233° Southwest 374 430 34,000  Level Cleveland Center
06:49PM 41.0356 -77.7861 233° Southwest 374 430 34,000  Level Cleveland Center
06:50PM 40.9736 -77.8933 233° Southwest 374 430 34,000  Level Cleveland Center
06:51PM 40.9114 -78.0003 232° Southwest 374 430 34,000  Level Cleveland Center
06:52PM 40.8469 -78.1044 231° Southwest 374 430 34,000  Level Cleveland Center
06:53PM 40.7803 -78.2031 228° Southwest 369 425 34,000  Level Cleveland Center
06:54PM 40.7136 -78.3067 230° Southwest 369 425 34,000  Level Cleveland Center
06:55PM 40.6550 -78.3964 229° Southwest 364 419 34,000  Level Cleveland Center
06:56PM 40.5903 -78.4997 231° Southwest 364 419 34,000  Level Cleveland Center
06:57PM 40.5253 -78.6028 230° Southwest 364 419 34,000  Level Cleveland Center
06:58PM 40.4500 -78.7169 229° Southwest 371 427 34,000  Level Cleveland Center
06:59PM 40.3828 -78.8194 229° Southwest 371 427 34,000  Level Cleveland Center
07:00PM 40.3156 -78.9194 229° Southwest 371 427 34,000  Level Cleveland Center
07:01PM 40.2503 -79.0244 231° Southwest 371 427 34,000  Level Cleveland Center
07:02PM 40.1828 -79.1239 228° Southwest 371 427 34,000  Level Cleveland Center
07:03PM 40.1153 -79.2258 229° Southwest 371 427 34,000  Level Cleveland Center
07:04PM 40.0622 -79.3056 229° Southwest 371 427 34,000  Level Cleveland Center
07:05PM 39.9903 -79.4153 229° Southwest 371 427 34,000  Level Cleveland Center
07:06PM 39.9244 -79.5139 229° Southwest 366 421 34,000  Level Cleveland Center
07:07PM 39.8567 -79.6150 229° Southwest 366 421 34,000  Level Cleveland Center
07:08PM 39.7886 -79.7131 228° Southwest 366 421 34,000  Level Cleveland Center
07:09PM 39.7228 -79.8139 230° Southwest 371 427 34,000  Level Cleveland Center
07:10PM 39.6544 -79.9117 228° Southwest 371 427 34,000  Level Cleveland Center
07:11PM 39.5864 -80.0119 229° Southwest 371 427 34,000  Level Cleveland Center
07:12PM 39.5158 -80.1122 228° Southwest 371 427 34,000  Level Cleveland Center
07:14PM 39.3778 -80.3058 227° Southwest 377 434 34,000  Level Indianapolis Center
07:15PM 39.3067 -80.4031 227° Southwest 372 428 34,000  Level Indianapolis Center
07:16PM 39.2364 -80.5022 228° Southwest 375 432 34,000  Level Indianapolis Center
07:17PM 39.1661 -80.6025 228° Southwest 375 432 34,000  Level Indianapolis Center
07:18PM 39.0786 -80.7169 225° Southwest 374 430 34,000  Level Indianapolis Center
07:19PM 38.9881 -80.7836 210° Southwest 372 428 34,000  Level Indianapolis Center
07:20PM 38.8928 -80.8408 205° Southwest 375 432 34,000  Level Indianapolis Center
07:21PM 38.7969 -80.9000 206° Southwest 378 435 34,000  Level Indianapolis Center
07:22PM 38.7008 -80.9606 206° Southwest 382 440 34,000  Level Indianapolis Center
07:23PM 38.6042 -81.0200 206° Southwest 383 441 34,000  Level Indianapolis Center
07:24PM 38.5078 -81.0786 205° Southwest 381 438 34,000  Level Indianapolis Center
07:25PM 38.4114 -81.1372 205° Southwest 381 438 34,000  Level Indianapolis Center
07:26PM 38.2947 -81.2111 206° Southwest 387 445 34,000  Level Indianapolis Center
07:27PM 38.1958 -81.2700 205° Southwest 389 448 34,000  Level Indianapolis Center
07:29PM 38.0986 -81.3289 205° Southwest 386 444 34,000  Level Indianapolis Center
07:30PM 38.0022 -81.3886 206° Southwest 384 442 34,000  Level Indianapolis Center
07:31PM 37.9036 -81.4475 205° Southwest 389 448 34,000  Level Indianapolis Center
07:32PM 37.7886 -81.5153 205° Southwest 393 452 34,000  Level Indianapolis Center
07:33PM 37.6894 -81.5742 205° Southwest 390 449 34,000  Level Indianapolis Center
07:34PM 37.5908 -81.6336 206° Southwest 392 451 34,000  Level Indianapolis Center
07:35PM 37.4917 -81.6942 206° Southwest 393 452 34,000  Level Indianapolis Center
07:36PM 37.3953 -81.7619 209° Southwest 395 455 34,000  Level Indianapolis Center
07:37PM 37.3008 -81.8342 211° Southwest 395 455 34,000  Level Indianapolis Center
07:38PM 37.1900 -81.9172 211° Southwest 396 456 34,000  Level Indianapolis Center
07:39PM 37.0947 -81.9869 210° Southwest 395 455 34,000  Level Indianapolis Center
07:40PM 36.9978 -82.0572 210° Southwest 398 458 34,000  Level Indianapolis Center
07:41PM 36.9000 -82.1264 210° Southwest 401 461 34,000  Level Indianapolis Center
07:42PM 36.8039 -82.1967 210° Southwest 399 459 34,000  Level Indianapolis Center
07:43PM 36.7028 -82.2614 207° Southwest 402 463 34,000  Level Indianapolis Center
07:44PM 36.6006 -82.3233 206° Southwest 403 464 34,000  Level Indianapolis Center
07:45PM 36.5306 -82.3594 203° Southwest 405 466 34,000  Level Atlanta Center
07:46PM 36.4375 -82.4078 203° Southwest 405 466 34,000  Level Atlanta Center
07:47PM 36.3361 -82.4639 204° Southwest 400 460 34,000  Level Atlanta Center
07:48PM 36.2325 -82.5175 203° Southwest 400 460 34,000  Level Atlanta Center
07:49PM 36.1308 -82.5683 202° Southwest 400 460 34,000  Level Atlanta Center
07:50PM 36.0292 -82.6239 204° Southwest 395 455 34,000  Level Atlanta Center
07:51PM 35.9256 -82.6744 202° Southwest 401 461 34,000  Level Atlanta Center
07:52PM 35.8219 -82.7300 204° Southwest 406 467 34,000  Level Atlanta Center
07:52PM 35.7181 -82.7828 202° Southwest 406 467 34,000  Level Atlanta Center
07:54PM 35.6164 -82.8356 203° Southwest 406 467 34,000 -720 Level Atlanta Center
07:54PM 35.5169 -82.8956 206° Southwest 397 457 32,600 -1,320 Descending Atlanta Center
07:55PM 35.4172 -82.9658 210° Southwest 409 471 31,500 -1,020 Descending Atlanta Center
07:56PM 35.3136 -83.0333 208° Southwest 414 476 30,600 -1,020 Descending Atlanta Center
07:58PM 35.2119 -83.1033 209° Southwest 414 476 29,500 -1,380 Descending Atlanta Center
07:58PM 35.0978 -83.1833 210° Southwest 414 476 27,900 -1,500 Descending Atlanta Center
08:00PM 34.9917 -83.2528 208° Southwest 419 482 26,500 -1,680 Descending Atlanta Center
08:01PM 34.8858 -83.3222 208° Southwest 430 495 24,600 -1,320 Descending Atlanta Center
08:01PM 34.7819 -83.3939 210° Southwest 435 501 24,000 -660 Descending Atlanta Center
08:02PM 34.6736 -83.4656 209° Southwest 435 501 23,400 -1,500 Descending Atlanta Center
08:04PM 34.5861 -83.5189 207° Southwest 427 491 21,000 -2,640 Descending Atlanta Center
08:04PM 34.4864 -83.5903 211° Southwest 422 486 18,200 -2,640 Descending Atlanta Center
08:06PM 34.3842 -83.6536 207° Southwest 411 473 15,800 -2,220 Descending Atlanta Center
08:06PM 34.2906 -83.7144 208° Southwest 400 460 13,800 -1,800 Descending Atlanta Center
08:08PM 34.1883 -83.7803 208° Southwest 395 455 12,300 -900 Descending Atlanta Center
08:08PM 34.1031 -83.8381 209° Southwest 371 427 12,000 -300 Descending Atlanta Center
08:09PM 34.0500 -83.8833 215° Southwest 308 354 11,800 -1,080 Descending Atlanta TRACON
08:10PM 34.0000 -83.9500 228° Southwest 300 345 10,200 -1,500 Descending Atlanta TRACON
08:11PM 33.9167 -83.9500 180° South 294 338 9,000 -600 Descending Atlanta TRACON
08:12PM 33.8333 -83.9667 189° South 298 343 9,000 -480 Level Atlanta TRACON
08:13PM 33.7500 -83.9667 180° South 298 343 8,100 -1,080 Descending Atlanta TRACON
08:14PM 33.6667 -83.9833 189° South 290 334 6,800 -780 Descending Atlanta TRACON
08:15PM 33.6333 -84.0667 244° Southwest 240 276 6,500 -720 Descending Atlanta TRACON
08:16PM 33.6333 -84.1333 270° West 240 276 5,500 -1,260 Descending Atlanta TRACON
08:17PM 33.6333 -84.2167 270° West 230 265 4,200 -1,320 Descending Atlanta TRACON